sensor_id;sensor_type;location;lat;lon;timestamp;P1;durP1;ratioP1;P2;durP2;ratioP2
55469;SDS011;41334;47.872;16.384;2024-02-21T00:03:20;1.02;;;0.50;;
55469;SDS011;41334;47.872;16.384;2024-02-21T00:08:22;2.45;;;0.73;;
55469;SDS011;41334;47.872;16.384;2024-02-21T00:13:24;1.63;;;0.88;;
55469;SDS011;41334;47.872;16.384;2024-02-21T00:18:26;1.77;;;0.20;;
55469;SDS011;41334;47.872;16.384;2024-02-21T00:23:31;6.30;;;0.98;;
55469;SDS011;41334;47.872;16.384;2024-02-21T00:28:33;2.90;;;0.65;;
55469;SDS011;41334;47.872;16.384;2024-02-21T00:33:35;2.15;;;0.70;;
55469;SDS011;41334;47.872;16.384;2024-02-21T00:38:37;3.70;;;1.63;;
55469;SDS011;41334;47.872;16.384;2024-02-21T00:43:39;4.30;;;1.30;;
55469;SDS011;41334;47.872;16.384;2024-02-21T00:48:41;0.77;;;0.38;;
55469;SDS011;41334;47.872;16.384;2024-02-21T00:53:43;6.80;;;1.15;;
55469;SDS011;41334;47.872;16.384;2024-02-21T00:58:45;0.80;;;0.40;;
55469;SDS011;41334;47.872;16.384;2024-02-21T01:03:48;0.45;;;0.20;;
55469;SDS011;41334;47.872;16.384;2024-02-21T01:08:50;0.98;;;0.70;;
55469;SDS011;41334;47.872;16.384;2024-02-21T01:13:52;0.32;;;0.22;;
55469;SDS011;41334;47.872;16.384;2024-02-21T01:18:54;3.08;;;0.73;;
55469;SDS011;41334;47.872;16.384;2024-02-21T01:23:56;1.33;;;0.50;;
55469;SDS011;41334;47.872;16.384;2024-02-21T01:28:58;1.60;;;0.52;;
55469;SDS011;41334;47.872;16.384;2024-02-21T01:34:00;0.57;;;0.30;;
55469;SDS011;41334;47.872;16.384;2024-02-21T01:39:02;0.65;;;0.30;;
55469;SDS011;41334;47.872;16.384;2024-02-21T01:44:04;1.95;;;0.55;;
55469;SDS011;41334;47.872;16.384;2024-02-21T01:49:06;1.20;;;0.30;;
55469;SDS011;41334;47.872;16.384;2024-02-21T01:54:08;7.50;;;0.43;;
55469;SDS011;41334;47.872;16.384;2024-02-21T01:59:12;3.28;;;1.00;;
55469;SDS011;41334;47.872;16.384;2024-02-21T02:04:15;0.38;;;0.15;;
55469;SDS011;41334;47.872;16.384;2024-02-21T02:09:17;0.32;;;0.15;;
55469;SDS011;41334;47.872;16.384;2024-02-21T02:14:19;2.85;;;0.70;;
55469;SDS011;41334;47.872;16.384;2024-02-21T02:19:21;3.50;;;0.60;;
55469;SDS011;41334;47.872;16.384;2024-02-21T02:24:24;2.00;;;0.13;;
55469;SDS011;41334;47.872;16.384;2024-02-21T02:29:31;0.20;;;0.08;;
55469;SDS011;41334;47.872;16.384;2024-02-21T02:34:34;0.30;;;0.00;;
55469;SDS011;41334;47.872;16.384;2024-02-21T02:39:36;0.35;;;0.25;;
55469;SDS011;41334;47.872;16.384;2024-02-21T02:44:38;1.50;;;0.60;;
55469;SDS011;41334;47.872;16.384;2024-02-21T02:49:41;3.05;;;0.85;;
55469;SDS011;41334;47.872;16.384;2024-02-21T02:54:43;0.50;;;0.50;;
55469;SDS011;41334;47.872;16.384;2024-02-21T02:59:49;1.83;;;0.30;;
55469;SDS011;41334;47.872;16.384;2024-02-21T03:04:52;2.97;;;0.50;;
55469;SDS011;41334;47.872;16.384;2024-02-21T03:09:55;1.15;;;0.43;;
55469;SDS011;41334;47.872;16.384;2024-02-21T03:14:56;0.80;;;0.35;;
55469;SDS011;41334;47.872;16.384;2024-02-21T03:19:59;0.32;;;0.22;;
55469;SDS011;41334;47.872;16.384;2024-02-21T03:25:01;4.75;;;0.50;;
55469;SDS011;41334;47.872;16.384;2024-02-21T03:30:04;0.10;;;0.10;;
55469;SDS011;41334;47.872;16.384;2024-02-21T03:35:07;0.57;;;0.25;;
55469;SDS011;41334;47.872;16.384;2024-02-21T03:40:09;0.30;;;0.20;;
55469;SDS011;41334;47.872;16.384;2024-02-21T03:45:11;5.28;;;0.88;;
55469;SDS011;41334;47.872;16.384;2024-02-21T03:50:13;3.63;;;1.23;;
55469;SDS011;41334;47.872;16.384;2024-02-21T03:55:15;0.63;;;0.30;;
55469;SDS011;41334;47.872;16.384;2024-02-21T04:00:18;1.35;;;0.40;;
55469;SDS011;41334;47.872;16.384;2024-02-21T04:05:20;0.32;;;0.32;;
55469;SDS011;41334;47.872;16.384;2024-02-21T04:10:22;0.55;;;0.28;;
55469;SDS011;41334;47.872;16.384;2024-02-21T04:15:25;2.00;;;0.10;;
55469;SDS011;41334;47.872;16.384;2024-02-21T04:20:27;4.47;;;0.30;;
55469;SDS011;41334;47.872;16.384;2024-02-21T04:25:30;5.97;;;0.88;;
55469;SDS011;41334;47.872;16.384;2024-02-21T04:30:32;0.50;;;0.50;;
55469;SDS011;41334;47.872;16.384;2024-02-21T04:35:35;1.40;;;0.73;;
55469;SDS011;41334;47.872;16.384;2024-02-21T04:40:38;0.25;;;0.08;;
55469;SDS011;41334;47.872;16.384;2024-02-21T04:45:40;0.28;;;0.13;;
55469;SDS011;41334;47.872;16.384;2024-02-21T04:50:42;1.73;;;0.50;;
55469;SDS011;41334;47.872;16.384;2024-02-21T04:55:44;0.60;;;0.28;;
55469;SDS011;41334;47.872;16.384;2024-02-21T05:00:47;1.63;;;0.30;;
55469;SDS011;41334;47.872;16.384;2024-02-21T05:05:50;1.55;;;0.60;;
55469;SDS011;41334;47.872;16.384;2024-02-21T05:10:52;2.03;;;0.50;;
55469;SDS011;41334;47.872;16.384;2024-02-21T05:15:55;4.18;;;0.70;;
55469;SDS011;41334;47.872;16.384;2024-02-21T05:20:57;0.70;;;0.60;;
55469;SDS011;41334;47.872;16.384;2024-02-21T05:25:59;2.67;;;0.85;;
55469;SDS011;41334;47.872;16.384;2024-02-21T05:31:02;1.35;;;0.40;;
55469;SDS011;41334;47.872;16.384;2024-02-21T05:36:04;2.70;;;0.73;;
55469;SDS011;41334;47.872;16.384;2024-02-21T05:41:07;0.65;;;0.38;;
55469;SDS011;41334;47.872;16.384;2024-02-21T05:46:12;8.63;;;1.35;;
55469;SDS011;41334;47.872;16.384;2024-02-21T05:51:16;1.98;;;0.80;;
55469;SDS011;41334;47.872;16.384;2024-02-21T05:56:18;15.35;;;2.28;;
55469;SDS011;41334;47.872;16.384;2024-02-21T06:01:20;0.80;;;0.45;;
55469;SDS011;41334;47.872;16.384;2024-02-21T06:06:23;1.50;;;0.63;;
55469;SDS011;41334;47.872;16.384;2024-02-21T06:11:25;5.25;;;1.58;;
55469;SDS011;41334;47.872;16.384;2024-02-21T06:16:28;6.07;;;1.90;;
55469;SDS011;41334;47.872;16.384;2024-02-21T06:21:30;4.38;;;0.85;;
55469;SDS011;41334;47.872;16.384;2024-02-21T06:26:32;5.38;;;1.77;;
55469;SDS011;41334;47.872;16.384;2024-02-21T06:31:35;2.75;;;0.70;;
55469;SDS011;41334;47.872;16.384;2024-02-21T06:36:37;3.88;;;0.85;;
55469;SDS011;41334;47.872;16.384;2024-02-21T06:41:39;3.53;;;1.15;;
55469;SDS011;41334;47.872;16.384;2024-02-21T06:46:42;6.15;;;1.65;;
55469;SDS011;41334;47.872;16.384;2024-02-21T06:51:44;4.30;;;1.02;;
55469;SDS011;41334;47.872;16.384;2024-02-21T06:56:46;5.53;;;1.00;;
55469;SDS011;41334;47.872;16.384;2024-02-21T07:01:51;2.63;;;0.77;;
55469;SDS011;41334;47.872;16.384;2024-02-21T07:06:55;1.15;;;0.60;;
55469;SDS011;41334;47.872;16.384;2024-02-21T07:11:58;2.88;;;0.55;;
55469;SDS011;41334;47.872;16.384;2024-02-21T07:17:00;1.50;;;0.55;;
55469;SDS011;41334;47.872;16.384;2024-02-21T07:22:02;4.18;;;1.02;;
55469;SDS011;41334;47.872;16.384;2024-02-21T07:27:04;3.60;;;1.00;;
55469;SDS011;41334;47.872;16.384;2024-02-21T07:32:06;2.95;;;0.90;;
55469;SDS011;41334;47.872;16.384;2024-02-21T07:37:08;2.75;;;1.13;;
55469;SDS011;41334;47.872;16.384;2024-02-21T07:42:11;3.78;;;1.30;;
55469;SDS011;41334;47.872;16.384;2024-02-21T07:47:13;1.73;;;0.85;;
55469;SDS011;41334;47.872;16.384;2024-02-21T07:52:16;3.10;;;1.52;;
55469;SDS011;41334;47.872;16.384;2024-02-21T07:57:19;3.22;;;0.90;;
55469;SDS011;41334;47.872;16.384;2024-02-21T08:02:21;9.00;;;0.80;;
55469;SDS011;41334;47.872;16.384;2024-02-21T08:07:23;3.28;;;1.33;;
55469;SDS011;41334;47.872;16.384;2024-02-21T08:12:25;2.65;;;0.68;;
55469;SDS011;41334;47.872;16.384;2024-02-21T08:17:28;2.03;;;0.88;;
55469;SDS011;41334;47.872;16.384;2024-02-21T08:22:30;5.57;;;0.98;;
55469;SDS011;41334;47.872;16.384;2024-02-21T08:27:32;3.65;;;1.10;;
55469;SDS011;41334;47.872;16.384;2024-02-21T08:32:34;4.53;;;1.10;;
55469;SDS011;41334;47.872;16.384;2024-02-21T08:37:38;4.95;;;1.63;;
55469;SDS011;41334;47.872;16.384;2024-02-21T08:42:40;2.28;;;0.68;;
55469;SDS011;41334;47.872;16.384;2024-02-21T08:47:42;1.25;;;0.57;;
55469;SDS011;41334;47.872;16.384;2024-02-21T08:52:44;1.38;;;0.50;;
55469;SDS011;41334;47.872;16.384;2024-02-21T08:57:47;1.17;;;0.43;;
55469;SDS011;41334;47.872;16.384;2024-02-21T09:02:49;2.70;;;0.75;;
55469;SDS011;41334;47.872;16.384;2024-02-21T09:07:51;2.25;;;0.50;;
55469;SDS011;41334;47.872;16.384;2024-02-21T09:12:53;1.10;;;0.43;;
55469;SDS011;41334;47.872;16.384;2024-02-21T09:17:55;4.55;;;0.68;;
55469;SDS011;41334;47.872;16.384;2024-02-21T09:22:57;2.03;;;0.43;;
55469;SDS011;41334;47.872;16.384;2024-02-21T09:28:00;1.52;;;0.63;;
55469;SDS011;41334;47.872;16.384;2024-02-21T09:33:03;1.63;;;0.47;;
55469;SDS011;41334;47.872;16.384;2024-02-21T09:38:07;0.38;;;0.03;;
55469;SDS011;41334;47.872;16.384;2024-02-21T09:43:09;2.05;;;0.50;;
55469;SDS011;41334;47.872;16.384;2024-02-21T09:53:19;3.90;;;0.55;;
55469;SDS011;41334;47.872;16.384;2024-02-21T09:58:22;3.10;;;1.05;;
55469;SDS011;41334;47.872;16.384;2024-02-21T10:03:25;1.25;;;0.30;;
55469;SDS011;41334;47.872;16.384;2024-02-21T10:08:28;6.80;;;1.45;;
55469;SDS011;41334;47.872;16.384;2024-02-21T10:13:30;2.55;;;0.60;;
55469;SDS011;41334;47.872;16.384;2024-02-21T10:18:33;6.05;;;0.82;;
55469;SDS011;41334;47.872;16.384;2024-02-21T10:23:45;1.48;;;0.60;;
55469;SDS011;41334;47.872;16.384;2024-02-21T10:28:48;4.97;;;0.90;;
55469;SDS011;41334;47.872;16.384;2024-02-21T10:33:57;3.00;;;1.02;;
55469;SDS011;41334;47.872;16.384;2024-02-21T10:39:01;0.22;;;0.20;;
55469;SDS011;41334;47.872;16.384;2024-02-21T10:44:03;6.38;;;0.70;;
55469;SDS011;41334;47.872;16.384;2024-02-21T10:49:12;2.65;;;0.60;;
55469;SDS011;41334;47.872;16.384;2024-02-21T10:54:35;3.33;;;0.50;;
55469;SDS011;41334;47.872;16.384;2024-02-21T10:59:45;5.77;;;0.70;;
55469;SDS011;41334;47.872;16.384;2024-02-21T11:04:49;4.22;;;0.85;;
55469;SDS011;41334;47.872;16.384;2024-02-21T11:09:53;1.80;;;0.68;;
55469;SDS011;41334;47.872;16.384;2024-02-21T11:15:07;0.68;;;0.30;;
55469;SDS011;41334;47.872;16.384;2024-02-21T11:20:11;2.90;;;0.52;;
55469;SDS011;41334;47.872;16.384;2024-02-21T11:25:21;1.33;;;0.50;;
55469;SDS011;41334;47.872;16.384;2024-02-21T11:30:27;3.45;;;1.05;;
55469;SDS011;41334;47.872;16.384;2024-02-21T11:35:32;3.25;;;0.73;;
55469;SDS011;41334;47.872;16.384;2024-02-21T11:40:38;1.58;;;0.55;;
55469;SDS011;41334;47.872;16.384;2024-02-21T11:45:41;1.67;;;0.50;;
55469;SDS011;41334;47.872;16.384;2024-02-21T11:50:52;3.03;;;0.90;;
55469;SDS011;41334;47.872;16.384;2024-02-21T11:55:54;1.63;;;0.65;;
55469;SDS011;41334;47.872;16.384;2024-02-21T12:00:58;5.50;;;0.60;;
55469;SDS011;41334;47.872;16.384;2024-02-21T12:06:01;2.75;;;0.50;;
55469;SDS011;41334;47.872;16.384;2024-02-21T12:11:24;0.60;;;0.30;;
55469;SDS011;41334;47.872;16.384;2024-02-21T12:16:27;5.83;;;1.13;;
55469;SDS011;41334;47.872;16.384;2024-02-21T12:21:32;3.35;;;0.82;;
55469;SDS011;41334;47.872;16.384;2024-02-21T12:26:38;3.35;;;0.68;;
55469;SDS011;41334;47.872;16.384;2024-02-21T12:31:41;2.05;;;0.52;;
55469;SDS011;41334;47.872;16.384;2024-02-21T12:36:47;3.67;;;0.85;;
55469;SDS011;41334;47.872;16.384;2024-02-21T12:41:49;4.50;;;0.88;;
55469;SDS011;41334;47.872;16.384;2024-02-21T12:46:52;2.45;;;0.45;;
55469;SDS011;41334;47.872;16.384;2024-02-21T12:51:56;2.30;;;0.40;;
55469;SDS011;41334;47.872;16.384;2024-02-21T12:56:59;2.45;;;0.28;;
55469;SDS011;41334;47.872;16.384;2024-02-21T13:02:05;3.95;;;0.80;;
55469;SDS011;41334;47.872;16.384;2024-02-21T13:07:09;3.55;;;0.90;;
55469;SDS011;41334;47.872;16.384;2024-02-21T13:12:11;3.13;;;0.85;;
55469;SDS011;41334;47.872;16.384;2024-02-21T13:17:13;6.03;;;0.77;;
55469;SDS011;41334;47.872;16.384;2024-02-21T13:22:16;3.60;;;0.68;;
55469;SDS011;41334;47.872;16.384;2024-02-21T13:27:21;5.00;;;0.68;;
55469;SDS011;41334;47.872;16.384;2024-02-21T13:32:25;1.40;;;0.40;;
55469;SDS011;41334;47.872;16.384;2024-02-21T13:37:27;4.57;;;0.85;;
55469;SDS011;41334;47.872;16.384;2024-02-21T13:42:30;2.90;;;0.65;;
55469;SDS011;41334;47.872;16.384;2024-02-21T13:47:33;2.50;;;0.73;;
55469;SDS011;41334;47.872;16.384;2024-02-21T13:52:35;3.78;;;0.80;;
55469;SDS011;41334;47.872;16.384;2024-02-21T13:57:38;3.45;;;0.70;;
55469;SDS011;41334;47.872;16.384;2024-02-21T14:02:40;1.17;;;0.38;;
55469;SDS011;41334;47.872;16.384;2024-02-21T14:07:42;2.30;;;0.52;;
55469;SDS011;41334;47.872;16.384;2024-02-21T14:12:44;6.85;;;0.90;;
55469;SDS011;41334;47.872;16.384;2024-02-21T14:17:46;2.58;;;0.65;;
55469;SDS011;41334;47.872;16.384;2024-02-21T14:22:48;3.08;;;0.70;;
55469;SDS011;41334;47.872;16.384;2024-02-21T14:27:50;2.15;;;0.57;;
55469;SDS011;41334;47.872;16.384;2024-02-21T14:32:52;1.45;;;0.35;;
55469;SDS011;41334;47.872;16.384;2024-02-21T14:37:54;2.72;;;0.60;;
55469;SDS011;41334;47.872;16.384;2024-02-21T14:43:00;2.70;;;0.30;;
55469;SDS011;41334;47.872;16.384;2024-02-21T14:48:02;1.95;;;0.60;;
55469;SDS011;41334;47.872;16.384;2024-02-21T14:53:05;3.38;;;0.80;;
55469;SDS011;41334;47.872;16.384;2024-02-21T14:58:09;6.60;;;1.42;;
55469;SDS011;41334;47.872;16.384;2024-02-21T15:03:12;6.13;;;0.80;;
55469;SDS011;41334;47.872;16.384;2024-02-21T15:08:17;5.72;;;0.68;;
55469;SDS011;41334;47.872;16.384;2024-02-21T15:13:21;2.10;;;0.50;;
55469;SDS011;41334;47.872;16.384;2024-02-21T15:18:23;1.20;;;0.38;;
55469;SDS011;41334;47.872;16.384;2024-02-21T15:23:25;1.05;;;0.40;;
55469;SDS011;41334;47.872;16.384;2024-02-21T15:28:27;2.92;;;0.65;;
55469;SDS011;41334;47.872;16.384;2024-02-21T15:33:30;1.60;;;0.50;;
55469;SDS011;41334;47.872;16.384;2024-02-21T15:38:36;8.23;;;0.80;;
55469;SDS011;41334;47.872;16.384;2024-02-21T15:43:39;6.55;;;1.13;;
55469;SDS011;41334;47.872;16.384;2024-02-21T15:48:42;1.98;;;0.73;;
55469;SDS011;41334;47.872;16.384;2024-02-21T15:53:44;1.48;;;0.60;;
55469;SDS011;41334;47.872;16.384;2024-02-21T15:58:47;1.70;;;0.68;;
55469;SDS011;41334;47.872;16.384;2024-02-21T16:03:49;1.20;;;0.70;;
55469;SDS011;41334;47.872;16.384;2024-02-21T16:08:52;2.10;;;0.52;;
55469;SDS011;41334;47.872;16.384;2024-02-21T16:13:54;3.85;;;0.75;;
55469;SDS011;41334;47.872;16.384;2024-02-21T16:18:57;1.63;;;0.73;;
55469;SDS011;41334;47.872;16.384;2024-02-21T16:23:59;1.83;;;0.68;;
55469;SDS011;41334;47.872;16.384;2024-02-21T16:29:01;4.18;;;0.60;;
55469;SDS011;41334;47.872;16.384;2024-02-21T16:34:04;1.17;;;0.45;;
55469;SDS011;41334;47.872;16.384;2024-02-21T16:39:06;3.42;;;0.40;;
55469;SDS011;41334;47.872;16.384;2024-02-21T16:44:08;6.65;;;0.80;;
55469;SDS011;41334;47.872;16.384;2024-02-21T16:49:11;2.60;;;0.65;;
55469;SDS011;41334;47.872;16.384;2024-02-21T16:54:20;0.90;;;0.30;;
55469;SDS011;41334;47.872;16.384;2024-02-21T16:59:23;2.33;;;0.65;;
55469;SDS011;41334;47.872;16.384;2024-02-21T17:04:24;2.33;;;0.77;;
55469;SDS011;41334;47.872;16.384;2024-02-21T17:09:26;2.50;;;0.85;;
55469;SDS011;41334;47.872;16.384;2024-02-21T17:14:30;1.70;;;0.65;;
55469;SDS011;41334;47.872;16.384;2024-02-21T17:19:36;2.60;;;0.75;;
55469;SDS011;41334;47.872;16.384;2024-02-21T17:24:50;5.90;;;1.15;;
55469;SDS011;41334;47.872;16.384;2024-02-21T17:29:52;2.22;;;0.80;;
55469;SDS011;41334;47.872;16.384;2024-02-21T17:34:54;2.00;;;0.93;;
55469;SDS011;41334;47.872;16.384;2024-02-21T17:39:59;6.80;;;2.00;;
55469;SDS011;41334;47.872;16.384;2024-02-21T17:45:05;5.28;;;2.03;;
55469;SDS011;41334;47.872;16.384;2024-02-21T17:50:08;7.07;;;2.65;;
55469;SDS011;41334;47.872;16.384;2024-02-21T17:55:13;3.20;;;1.30;;
55469;SDS011;41334;47.872;16.384;2024-02-21T18:00:15;9.18;;;1.55;;
55469;SDS011;41334;47.872;16.384;2024-02-21T18:05:20;6.10;;;1.77;;
55469;SDS011;41334;47.872;16.384;2024-02-21T18:10:22;5.35;;;1.38;;
55469;SDS011;41334;47.872;16.384;2024-02-21T18:15:24;3.53;;;1.23;;
55469;SDS011;41334;47.872;16.384;2024-02-21T18:20:27;5.68;;;1.60;;
55469;SDS011;41334;47.872;16.384;2024-02-21T18:25:31;3.53;;;1.55;;
55469;SDS011;41334;47.872;16.384;2024-02-21T18:30:33;1.63;;;0.77;;
55469;SDS011;41334;47.872;16.384;2024-02-21T18:35:35;1.85;;;0.90;;
55469;SDS011;41334;47.872;16.384;2024-02-21T18:40:37;2.72;;;1.00;;
55469;SDS011;41334;47.872;16.384;2024-02-21T18:45:39;3.60;;;1.23;;
55469;SDS011;41334;47.872;16.384;2024-02-21T18:56:04;4.75;;;2.05;;
55469;SDS011;41334;47.872;16.384;2024-02-21T19:01:10;4.15;;;1.70;;
55469;SDS011;41334;47.872;16.384;2024-02-21T19:06:12;6.72;;;1.95;;
55469;SDS011;41334;47.872;16.384;2024-02-21T19:11:17;4.90;;;2.78;;
55469;SDS011;41334;47.872;16.384;2024-02-21T19:16:19;11.70;;;2.67;;
55469;SDS011;41334;47.872;16.384;2024-02-21T19:21:21;4.15;;;2.10;;
55469;SDS011;41334;47.872;16.384;2024-02-21T19:26:23;5.68;;;1.65;;
55469;SDS011;41334;47.872;16.384;2024-02-21T19:31:25;3.08;;;1.58;;
55469;SDS011;41334;47.872;16.384;2024-02-21T19:36:26;2.95;;;1.88;;
55469;SDS011;41334;47.872;16.384;2024-02-21T19:41:28;4.85;;;2.05;;
55469;SDS011;41334;47.872;16.384;2024-02-21T19:46:31;5.78;;;2.80;;
55469;SDS011;41334;47.872;16.384;2024-02-21T19:51:33;4.80;;;2.50;;
55469;SDS011;41334;47.872;16.384;2024-02-21T19:56:36;3.63;;;1.67;;
55469;SDS011;41334;47.872;16.384;2024-02-21T20:01:38;4.30;;;2.00;;
55469;SDS011;41334;47.872;16.384;2024-02-21T20:06:41;5.22;;;1.75;;
55469;SDS011;41334;47.872;16.384;2024-02-21T20:11:45;8.02;;;2.40;;
55469;SDS011;41334;47.872;16.384;2024-02-21T20:16:47;3.85;;;1.75;;
55469;SDS011;41334;47.872;16.384;2024-02-21T20:21:51;4.90;;;1.90;;
55469;SDS011;41334;47.872;16.384;2024-02-21T20:26:53;3.10;;;1.50;;
55469;SDS011;41334;47.872;16.384;2024-02-21T20:31:55;13.75;;;2.88;;
55469;SDS011;41334;47.872;16.384;2024-02-21T20:37:01;4.88;;;1.83;;
55469;SDS011;41334;47.872;16.384;2024-02-21T20:42:03;3.10;;;1.55;;
55469;SDS011;41334;47.872;16.384;2024-02-21T20:47:06;4.65;;;2.53;;
55469;SDS011;41334;47.872;16.384;2024-02-21T20:52:09;7.85;;;2.47;;
55469;SDS011;41334;47.872;16.384;2024-02-21T20:57:11;13.65;;;3.72;;
55469;SDS011;41334;47.872;16.384;2024-02-21T21:02:13;7.95;;;3.03;;
55469;SDS011;41334;47.872;16.384;2024-02-21T21:07:15;8.98;;;2.67;;
55469;SDS011;41334;47.872;16.384;2024-02-21T21:12:20;3.28;;;1.77;;
55469;SDS011;41334;47.872;16.384;2024-02-21T21:17:25;1.48;;;0.70;;
55469;SDS011;41334;47.872;16.384;2024-02-21T21:22:27;1.33;;;0.80;;
55469;SDS011;41334;47.872;16.384;2024-02-21T21:27:30;2.42;;;1.52;;
55469;SDS011;41334;47.872;16.384;2024-02-21T21:32:32;5.97;;;3.25;;
55469;SDS011;41334;47.872;16.384;2024-02-21T21:37:34;5.03;;;2.70;;
55469;SDS011;41334;47.872;16.384;2024-02-21T21:42:38;7.45;;;2.80;;
55469;SDS011;41334;47.872;16.384;2024-02-21T21:47:40;3.22;;;1.63;;
55469;SDS011;41334;47.872;16.384;2024-02-21T21:52:44;6.60;;;2.30;;
55469;SDS011;41334;47.872;16.384;2024-02-21T21:57:50;3.70;;;1.52;;
55469;SDS011;41334;47.872;16.384;2024-02-21T22:02:54;6.90;;;2.00;;
55469;SDS011;41334;47.872;16.384;2024-02-21T22:07:57;1.58;;;0.68;;
55469;SDS011;41334;47.872;16.384;2024-02-21T22:13:00;3.58;;;1.90;;
55469;SDS011;41334;47.872;16.384;2024-02-21T22:18:03;3.53;;;1.55;;
55469;SDS011;41334;47.872;16.384;2024-02-21T22:23:06;1.60;;;0.93;;
55469;SDS011;41334;47.872;16.384;2024-02-21T22:28:08;2.22;;;1.00;;
55469;SDS011;41334;47.872;16.384;2024-02-21T22:33:11;4.95;;;0.98;;
55469;SDS011;41334;47.872;16.384;2024-02-21T22:38:13;1.73;;;1.08;;
55469;SDS011;41334;47.872;16.384;2024-02-21T22:43:15;2.55;;;1.48;;
55469;SDS011;41334;47.872;16.384;2024-02-21T22:48:18;3.60;;;1.38;;
55469;SDS011;41334;47.872;16.384;2024-02-21T22:53:21;3.65;;;1.63;;
55469;SDS011;41334;47.872;16.384;2024-02-21T22:58:22;6.28;;;2.05;;
55469;SDS011;41334;47.872;16.384;2024-02-21T23:03:26;2.58;;;1.33;;
55469;SDS011;41334;47.872;16.384;2024-02-21T23:08:28;0.40;;;0.25;;
55469;SDS011;41334;47.872;16.384;2024-02-21T23:13:30;1.95;;;1.13;;
55469;SDS011;41334;47.872;16.384;2024-02-21T23:18:34;3.50;;;2.33;;
55469;SDS011;41334;47.872;16.384;2024-02-21T23:23:37;5.40;;;1.80;;
55469;SDS011;41334;47.872;16.384;2024-02-21T23:28:43;3.45;;;1.73;;
55469;SDS011;41334;47.872;16.384;2024-02-21T23:33:46;2.22;;;0.75;;
55469;SDS011;41334;47.872;16.384;2024-02-21T23:38:48;6.22;;;2.08;;
55469;SDS011;41334;47.872;16.384;2024-02-21T23:43:50;2.28;;;0.95;;
55469;SDS011;41334;47.872;16.384;2024-02-21T23:48:52;4.57;;;1.80;;
55469;SDS011;41334;47.872;16.384;2024-02-21T23:53:56;2.35;;;0.82;;
55469;SDS011;41334;47.872;16.384;2024-02-21T23:58:58;2.42;;;1.08;;
